METAR Data
IDs: Format: Raw Decoded Include TAF

Data at: 0801 UTC 03 Aug 2021

EGUB 030750Z 28001KT 7000 BR SCT004 BKN015 13/13 Q1013 RMK YLO2